Skip Navigation LinksHome page > Weather > Current weather Skip Navigation Links

Current Weather

Honolulu Intl, Honolulu

For information only: do not use for flight planning or navigation.
Latest weather
Observation time Friday, December 19, 2014 5:53 AM HST
Local time Friday, December 19, 2014 6:32 AM HST
Flight conditions Visual Meteorological Conditions
Winds
Wind direction Northeast (50°)
Wind speed 9 mph
Visibility 10 mi.
Sky condition
Ceiling unlimited
Cloud layer few clouds 3,300 ft.
Cloud layer scattered clouds 5,500 ft.
Temperature 74°F
Dewpoint 63°F
Altimeter 30.08 in.Hg
Derived measurements
Relative humidity 69%
Density altitude 1066 ft.
Sea-level pressure 30.08 in.Hg
Remarks
Automated weather observing station with precipitation discriminator.
METAR PHNL 191553Z 05008KT 10SM FEW033 SCT055 23/17 A3008 RMK AO2 SLP185 T02330172

Settings

Location code

InnerDrive.Weather 4.0.5399.0 Release CLR 4.0.30319.34014
Copyright ©2014 Inner Drive Technology. All rights reserved. Portions Copyright ©1986-2014 David Braverman.

Find weather

Site navigation


Skip Navigation Links

Place info

Page info

PayPal - The safer, easier way to pay online!

Return home.

Copyright ©2014 Inner Drive Technology. Purveyors of fine, hand-crafted computer software. Page printed 2014-12-19T16:32:21 UTC.